Grizzly Air Cargo 5380


PAKN
King Salmon Airport
King Salmon, Alaska, US
PANI
Aniak Airport
Aniak, Alaska, US

Activity Log

Date Flight Route Aircraft Duration
No Flights Yet

Route Details

Aircraft Information
Primary: Saab 340AF
Backup: Not Available
Route Data
Distance: 220nm
Sched. Duration: 1h 00m
Avg. Duration: 0h 00m (-100m)
Times Flown: 0
Recm'd Route: AKN Q51 SLIIM ANI
Planned Altitude: 20,000ft
Origin Wx: PAKN 061254Z 19010KT 8SM -RA OVC005 11/10 A3001 RMK AO2 RAE05B45 SLP162 P0001 T01110100
Dest. Wx: PANI 061307Z AUTO 25005KT 1SM -RA BR OVC003 13/13 A3002 RMK AO2 P0000
Notes:

Financial History
Total Freight: 0lbs
Average Load: 0lbs/flt
Fuel Used: 0lbs
Avg. Fuel Used: 0lbs/flt
Fuel Expense: $0
Avg. Fuel Expense: $0
Avg. Fuel Cost: $0/lbs
Total Gross Income: $0
Pilot Pay: $0
Total Expenses: $0
Total Revenue: $0
Average Revenue: $0